createdAt,value
2018-11-01T00:01:23.923Z,76.66
2018-11-01T00:03:56.240Z,76.44
2018-11-01T00:06:28.872Z,76.83
2018-11-01T00:09:00.141Z,76.73
2018-11-01T00:11:33.044Z,76.50
2018-11-01T00:14:05.063Z,76.68
2018-11-01T00:16:36.174Z,76.36
2018-11-01T00:19:08.509Z,76.33
2018-11-01T00:21:41.370Z,76.28
2018-11-01T00:24:15.599Z,76.24
2018-11-01T00:26:47.627Z,76.34
2018-11-01T00:29:19.585Z,76.19
2018-11-01T00:31:51.056Z,76.06
2018-11-01T00:34:22.846Z,76.37
2018-11-01T00:36:53.918Z,76.59
2018-11-01T00:39:24.927Z,76.41
2018-11-01T00:41:57.157Z,76.36
2018-11-01T00:44:30.538Z,76.68
2018-11-01T00:47:02.391Z,77.09
2018-11-01T00:49:33.805Z,76.59
2018-11-01T00:52:05.422Z,76.87
2018-11-01T00:54:37.525Z,76.87
2018-11-01T00:57:09.191Z,76.85
2018-11-01T00:59:40.687Z,76.35
2018-11-01T01:02:12.319Z,76.05
2018-11-01T01:04:44.779Z,76.13
2018-11-01T01:07:15.924Z,75.63
2018-11-01T01:09:46.923Z,75.84
2018-11-01T01:12:18.080Z,75.74
2018-11-01T01:14:49.859Z,75.56
2018-11-01T01:17:21.714Z,75.50
2018-11-01T01:19:53.238Z,74.96
2018-11-01T01:22:25.089Z,75.38
2018-11-01T01:24:56.963Z,75.37
2018-11-01T01:27:28.808Z,75.03
2018-11-01T01:30:00.957Z,74.82
2018-11-01T01:32:32.136Z,75.26
2018-11-01T01:35:03.606Z,75.13
2018-11-01T01:37:34.862Z,74.84
2018-11-01T01:40:07.012Z,75.00
2018-11-01T01:42:39.843Z,74.92
2018-11-01T01:45:12.072Z,74.65
2018-11-01T01:47:43.714Z,75.03
2018-11-01T01:50:16.599Z,74.81
2018-11-01T01:52:48.325Z,74.66
2018-11-01T01:55:20.080Z,74.94
2018-11-01T01:57:51.297Z,75.05
2018-11-01T02:00:23.035Z,75.31
2018-11-01T02:02:54.922Z,74.72
2018-11-01T02:05:26.425Z,74.67
2018-11-01T02:07:57.960Z,75.07
2018-11-01T02:10:29.592Z,75.09
2018-11-01T02:13:01.036Z,75.45
2018-11-01T02:15:33.016Z,75.29
2018-11-01T02:18:04.180Z,75.14
2018-11-01T02:20:35.572Z,75.49
2018-11-01T02:23:07.849Z,75.80
2018-11-01T02:25:39.263Z,75.46
2018-11-01T02:28:18.285Z,76.02
2018-11-01T02:30:49.636Z,75.95
2018-11-01T02:33:20.622Z,76.14
2018-11-01T02:35:51.882Z,75.74
2018-11-01T02:38:23.486Z,76.09
2018-11-01T02:40:54.780Z,75.87
2018-11-01T02:43:25.907Z,75.98
2018-11-01T02:46:02.045Z,76.13
2018-11-01T02:48:33.136Z,75.72
2018-11-01T02:51:04.411Z,75.56
2018-11-01T02:53:35.362Z,75.99
2018-11-01T02:56:06.930Z,75.82
2018-11-01T02:58:38.352Z,76.22
2018-11-01T03:01:10.791Z,76.18
2018-11-01T03:03:48.709Z,76.52
2018-11-01T03:06:20.648Z,76.21
2018-11-01T03:08:51.938Z,76.39
2018-11-01T03:11:23.795Z,76.36
2018-11-01T03:13:55.613Z,76.29
2018-11-01T03:16:27.126Z,76.34
2018-11-01T03:18:59.013Z,76.46
2018-11-01T03:21:30.815Z,76.68
2018-11-01T03:24:01.929Z,76.89
2018-11-01T03:26:33.456Z,76.76
2018-11-01T03:29:06.397Z,76.81
2018-11-01T03:31:37.339Z,76.98
2018-11-01T03:34:08.894Z,77.00
2018-11-01T03:36:40.102Z,77.10
2018-11-01T03:39:13.566Z,77.14
2018-11-01T03:41:45.071Z,77.25
2018-11-01T03:44:16.550Z,77.55
2018-11-01T03:46:48.123Z,77.46
2018-11-01T03:49:19.316Z,77.29
2018-11-01T03:51:51.137Z,77.07
2018-11-01T03:54:22.377Z,77.35
2018-11-01T03:56:53.821Z,77.62
2018-11-01T03:59:25.308Z,77.58
2018-11-01T04:01:57.394Z,77.51
2018-11-01T04:04:29.589Z,77.75
2018-11-01T04:07:01.338Z,77.52
2018-11-01T04:09:32.683Z,77.62
2018-11-01T04:12:04.223Z,77.75
2018-11-01T04:14:36.369Z,77.54
2018-11-01T04:17:08.242Z,77.49
2018-11-01T04:19:39.672Z,78.01
2018-11-01T04:22:11.423Z,77.67
2018-11-01T04:24:42.613Z,77.71
2018-11-01T04:27:14.589Z,77.85
2018-11-01T04:29:46.173Z,77.59
2018-11-01T04:32:18.079Z,77.68
2018-11-01T04:34:49.533Z,77.76
2018-11-01T04:37:20.986Z,77.15
2018-11-01T04:39:52.351Z,77.38
2018-11-01T04:42:23.579Z,77.30
2018-11-01T04:44:54.678Z,77.34
2018-11-01T04:47:26.075Z,77.37
2018-11-01T04:49:57.511Z,77.48
2018-11-01T04:52:29.323Z,77.16
2018-11-01T04:55:00.605Z,77.48
2018-11-01T04:57:31.751Z,77.25
2018-11-01T05:00:04.319Z,77.25
2018-11-01T05:02:36.098Z,77.14
2018-11-01T05:05:08.052Z,77.05
2018-11-01T05:07:40.541Z,76.82
2018-11-01T05:10:27.989Z,77.21
2018-11-01T05:12:59.584Z,77.21
2018-11-01T05:15:35.515Z,77.21
2018-11-01T05:18:07.357Z,77.53
2018-11-01T05:20:39.462Z,77.51
2018-11-01T05:23:11.658Z,77.51
2018-11-01T05:25:43.143Z,77.90
2018-11-01T05:28:14.633Z,78.00
2018-11-01T05:30:45.747Z,77.75
2018-11-01T05:33:17.903Z,78.10
2018-11-01T05:35:49.550Z,77.83
2018-11-01T05:38:21.749Z,77.68
2018-11-01T05:40:53.410Z,77.75
2018-11-01T05:43:28.171Z,78.11
2018-11-01T05:46:00.337Z,77.69
2018-11-01T05:48:32.224Z,77.97
2018-11-01T05:51:03.501Z,78.02
2018-11-01T05:53:35.345Z,77.71
2018-11-01T05:56:06.764Z,77.59
2018-11-01T05:58:38.170Z,77.87
2018-11-01T06:01:12.696Z,78.10
2018-11-01T06:03:44.146Z,77.99
2018-11-01T06:06:15.892Z,77.47
2018-11-01T06:08:48.058Z,77.70
2018-11-01T06:11:19.834Z,77.63
2018-11-01T06:13:51.020Z,77.82
2018-11-01T06:16:22.214Z,77.54
2018-11-01T06:18:53.290Z,77.92
2018-11-01T06:21:24.842Z,77.86
2018-11-01T06:23:56.199Z,77.82
2018-11-01T06:26:28.562Z,77.61
2018-11-01T06:29:00.108Z,77.71
2018-11-01T06:31:31.943Z,77.74
2018-11-01T06:34:03.339Z,77.95
2018-11-01T06:36:34.805Z,77.92
2018-11-01T06:39:07.750Z,77.73
2018-11-01T06:41:40.083Z,77.66
2018-11-01T06:44:11.618Z,77.66
2018-11-01T06:46:43.148Z,77.24
2018-11-01T06:49:15.281Z,77.08
2018-11-01T06:51:46.486Z,77.76
2018-11-01T06:54:17.698Z,77.56
2018-11-01T06:56:49.159Z,77.12
2018-11-01T06:59:21.652Z,76.54
2018-11-01T07:01:52.929Z,77.11
2018-11-01T07:04:24.388Z,76.45
2018-11-01T07:06:55.575Z,76.68
2018-11-01T07:09:26.967Z,76.60
2018-11-01T07:11:58.457Z,76.08
2018-11-01T07:14:29.652Z,76.33
2018-11-01T07:17:01.792Z,75.68
2018-11-01T07:19:33.367Z,74.94
2018-11-01T07:22:05.386Z,75.25
2018-11-01T07:24:37.176Z,74.51
2018-11-01T07:27:08.618Z,74.45
2018-11-01T07:29:40.995Z,74.05
2018-11-01T07:32:12.930Z,73.61
2018-11-01T07:34:47.273Z,72.99
2018-11-01T07:37:19.376Z,72.52
2018-11-01T07:39:50.655Z,72.19
2018-11-01T07:42:22.418Z,72.23
2018-11-01T07:44:54.726Z,72.30
2018-11-01T07:47:26.816Z,72.48
2018-11-01T07:49:58.474Z,72.34
2018-11-01T07:52:30.367Z,72.12
2018-11-01T07:55:02.718Z,71.91
2018-11-01T07:57:34.156Z,71.86
2018-11-01T08:00:09.269Z,71.68
2018-11-01T08:02:42.871Z,70.92
2018-11-01T08:05:17.229Z,70.67
2018-11-01T08:07:49.058Z,70.17
2018-11-01T08:10:20.968Z,69.69
2018-11-01T08:12:53.676Z,68.82
2018-11-01T08:15:24.822Z,68.28
2018-11-01T08:17:56.206Z,67.74
2018-11-01T08:20:27.275Z,67.42
2018-11-01T08:22:59.227Z,67.64
2018-11-01T08:25:30.317Z,68.05
2018-11-01T08:28:01.657Z,68.13
2018-11-01T08:30:33.649Z,68.35
2018-11-01T08:33:04.858Z,68.47
2018-11-01T08:35:37.690Z,69.07
2018-11-01T08:38:09.764Z,69.25
2018-11-01T08:40:40.830Z,69.35
2018-11-01T08:43:13.107Z,69.95
2018-11-01T08:45:45.121Z,70.17
2018-11-01T08:48:17.271Z,70.21
2018-11-01T08:50:49.269Z,71.00
2018-11-01T08:53:20.675Z,70.85
2018-11-01T08:55:52.252Z,70.92
2018-11-01T08:58:23.342Z,70.70
2018-11-01T09:00:54.775Z,70.84
2018-11-01T09:03:25.987Z,70.71
2018-11-01T09:05:57.157Z,70.23
2018-11-01T09:08:29.205Z,69.58
2018-11-01T09:11:01.310Z,69.24
2018-11-01T09:13:32.977Z,68.53
2018-11-01T09:16:04.573Z,68.19
2018-11-01T09:18:36.404Z,67.86
2018-11-01T09:21:09.809Z,67.32
2018-11-01T09:23:41.948Z,66.18
2018-11-01T09:26:12.985Z,65.67
2018-11-01T09:28:44.963Z,65.42
2018-11-01T09:31:16.510Z,65.29
2018-11-01T09:33:47.769Z,64.75
2018-11-01T09:36:19.228Z,64.19
2018-11-01T09:38:50.735Z,64.14
2018-11-01T09:41:22.775Z,63.59
2018-11-01T09:43:54.160Z,63.74
2018-11-01T09:51:51.463Z,63.76
2018-11-01T09:54:23.576Z,63.97
2018-11-01T09:56:54.766Z,63.96
2018-11-01T09:59:26.636Z,63.78
2018-11-01T11:30:57.764Z,60.69
2018-11-01T11:33:29.448Z,60.43
2018-11-01T11:36:00.868Z,60.39
2018-11-01T11:38:31.890Z,60.39
2018-11-01T11:41:04.812Z,60.23
2018-11-01T11:43:36.155Z,60.39
2018-11-01T11:46:08.060Z,60.18
2018-11-01T11:48:40.479Z,60.42
2018-11-01T11:51:11.654Z,60.47
2018-11-01T11:53:43.286Z,60.19
2018-11-01T11:56:14.420Z,60.56
2018-11-01T11:58:46.195Z,60.14
2018-11-01T12:01:17.320Z,59.96
2018-11-01T12:03:48.724Z,59.44
2018-11-01T12:06:20.632Z,59.37
2018-11-01T12:08:51.899Z,59.01
2018-11-01T12:11:23.052Z,59.22
2018-11-01T12:13:54.644Z,58.95
2018-11-01T12:16:26.887Z,58.78
2018-11-01T12:18:58.113Z,58.57
2018-11-01T12:21:29.657Z,58.82
2018-11-01T12:24:01.322Z,59.54
2018-11-01T12:26:32.979Z,59.45
2018-11-01T12:29:04.281Z,59.23
2018-11-01T12:31:37.198Z,60.46
2018-11-01T12:34:08.981Z,60.07
2018-11-01T12:36:40.962Z,60.33
2018-11-01T12:39:12.375Z,60.08
2018-11-01T12:41:44.438Z,60.59
2018-11-01T12:44:15.633Z,60.65
2018-11-01T12:46:46.934Z,60.49
2018-11-01T12:49:18.915Z,60.46
2018-11-01T12:51:50.760Z,60.94
2018-11-01T12:54:22.275Z,60.45
2018-11-01T12:56:53.648Z,60.25
2018-11-01T12:59:24.680Z,59.51
2018-11-01T13:01:56.533Z,60.20
2018-11-01T13:04:28.041Z,59.69
2018-11-01T13:06:59.798Z,59.97
2018-11-01T13:09:32.889Z,60.22
2018-11-01T13:12:04.501Z,59.71
2018-11-01T13:14:36.497Z,59.47
2018-11-01T13:17:08.280Z,59.32
2018-11-01T13:19:40.264Z,57.99
2018-11-01T13:22:11.976Z,58.25
2018-11-01T13:24:43.424Z,58.11
2018-11-01T13:27:17.391Z,57.03
2018-11-01T13:29:48.547Z,57.17
2018-11-01T13:32:19.727Z,56.22
2018-11-01T13:34:52.401Z,56.17
2018-11-01T13:37:25.194Z,56.31
2018-11-01T13:39:57.971Z,56.12
2018-11-01T13:42:31.157Z,55.52
2018-11-01T13:45:02.988Z,55.02
2018-11-01T13:47:34.967Z,54.90
2018-11-01T13:50:08.651Z,54.93
2018-11-01T13:52:40.275Z,54.67
2018-11-01T13:55:14.521Z,54.82
2018-11-01T13:57:46.951Z,54.74
2018-11-01T14:00:18.226Z,54.66
2018-11-01T14:02:49.955Z,55.10
2018-11-01T14:05:23.192Z,55.28
2018-11-01T14:07:56.546Z,54.73
2018-11-01T14:10:28.736Z,54.44
2018-11-01T14:13:00.459Z,54.75
2018-11-01T14:15:31.796Z,54.28
2018-11-01T14:18:05.573Z,54.79
2018-11-01T14:20:40.277Z,54.95
2018-11-01T14:23:12.127Z,55.75
2018-11-01T14:25:44.041Z,55.42
2018-11-01T14:28:15.313Z,56.42
2018-11-01T14:30:47.642Z,56.34
2018-11-01T14:33:18.997Z,56.98
2018-11-01T14:35:51.241Z,57.13
2018-11-01T14:38:22.968Z,57.73
2018-11-01T14:40:57.481Z,57.73
2018-11-01T14:43:29.818Z,58.20
2018-11-01T14:46:01.035Z,58.24
2018-11-01T14:48:32.739Z,58.85
2018-11-01T14:51:04.778Z,60.11
2018-11-01T14:53:37.377Z,60.49
2018-11-01T14:56:10.571Z,61.10
2018-11-01T14:58:42.504Z,61.62
2018-11-01T15:01:12.899Z,62.92
2018-11-01T15:03:46.924Z,64.12
2018-11-01T15:06:18.239Z,64.74
2018-11-01T15:08:50.410Z,65.64
2018-11-01T15:11:22.127Z,66.39
2018-11-01T15:13:54.342Z,67.00
2018-11-01T15:16:27.110Z,66.74
2018-11-01T15:18:59.379Z,66.89
2018-11-01T15:21:34.235Z,66.78
2018-11-01T15:24:08.969Z,67.40
2018-11-01T15:26:43.237Z,67.38
2018-11-01T15:29:15.983Z,67.29
2018-11-01T15:31:47.633Z,67.50
2018-11-01T15:34:19.273Z,68.34
2018-11-01T15:36:50.999Z,68.54
2018-11-01T15:39:22.594Z,68.36
2018-11-01T15:41:54.343Z,68.50
2018-11-01T15:44:27.446Z,68.16
2018-11-01T15:46:58.641Z,68.79
2018-11-01T15:49:30.321Z,69.20
2018-11-01T15:52:01.461Z,68.95
2018-11-01T15:54:32.835Z,69.18
2018-11-01T15:57:04.079Z,68.88
2018-11-01T15:59:35.340Z,69.55
2018-11-01T16:02:08.692Z,69.28
2018-11-01T16:04:41.430Z,69.44
2018-11-01T16:07:13.806Z,69.16
2018-11-01T16:09:45.695Z,70.06
2018-11-01T16:12:17.939Z,70.08
2018-11-01T16:14:53.340Z,70.28
2018-11-01T16:17:29.181Z,70.36
2018-11-01T16:20:02.763Z,70.61
2018-11-01T16:22:40.107Z,71.01
2018-11-01T16:25:13.835Z,71.56
2018-11-01T16:27:47.839Z,71.32
2018-11-01T16:30:21.080Z,71.06
2018-11-01T16:32:53.074Z,71.43
2018-11-01T16:35:25.472Z,71.80
2018-11-01T16:37:57.303Z,72.86
2018-11-01T16:40:29.162Z,72.65
2018-11-01T16:43:00.634Z,72.71
2018-11-01T16:45:32.305Z,72.89
2018-11-01T16:48:03.766Z,72.84
2018-11-01T16:50:35.928Z,73.10
2018-11-01T16:53:08.786Z,73.16
2018-11-01T16:55:41.040Z,73.32
2018-11-01T16:58:12.762Z,73.39
2018-11-01T17:00:44.768Z,73.46
2018-11-01T17:03:15.931Z,74.02
2018-11-01T17:05:51.566Z,73.84
2018-11-01T17:08:25.994Z,73.79
2018-11-01T17:10:59.722Z,74.13
2018-11-01T17:13:31.777Z,74.02
2018-11-01T17:16:03.516Z,74.33
2018-11-01T17:18:35.737Z,74.44
2018-11-01T17:21:08.226Z,74.53
2018-11-01T17:23:42.628Z,74.55
2018-11-01T17:26:15.906Z,75.06
2018-11-01T17:28:47.823Z,75.33
2018-11-01T17:31:20.212Z,75.77
2018-11-01T17:33:52.438Z,76.04
2018-11-01T17:36:24.201Z,76.25
2018-11-01T17:38:55.394Z,76.72
2018-11-01T17:41:26.718Z,76.72
2018-11-01T17:44:00.062Z,77.04
2018-11-01T17:46:31.493Z,77.09
2018-11-01T17:49:02.716Z,77.41
2018-11-01T17:51:34.500Z,77.11
2018-11-01T17:54:05.703Z,77.32
2018-11-01T17:56:37.325Z,77.07
2018-11-01T17:59:09.643Z,76.96
2018-11-01T18:01:41.057Z,76.92
2018-11-01T18:04:14.022Z,76.71
2018-11-01T18:06:46.452Z,76.95
2018-11-01T18:09:18.424Z,77.09
2018-11-01T18:11:49.684Z,77.04
2018-11-01T18:14:20.822Z,77.33
2018-11-01T18:16:52.922Z,77.15
2018-11-01T18:19:24.847Z,77.37
2018-11-01T18:21:56.521Z,77.37
2018-11-01T18:24:29.035Z,77.78
2018-11-01T18:27:00.554Z,77.70
2018-11-01T18:29:31.867Z,77.60
2018-11-01T18:32:04.680Z,77.80
2018-11-01T18:34:35.931Z,78.17
2018-11-01T18:37:07.673Z,78.57
2018-11-01T18:39:39.377Z,79.09
2018-11-01T18:42:10.894Z,79.44
2018-11-01T18:44:42.686Z,79.22
2018-11-01T18:47:14.762Z,79.15
2018-11-01T18:49:47.696Z,78.99
2018-11-01T18:52:19.728Z,79.22
2018-11-01T18:54:51.868Z,79.43
2018-11-01T18:57:24.186Z,79.54
2018-11-01T18:59:57.020Z,79.77
2018-11-01T19:02:30.462Z,79.43
2018-11-01T19:05:02.729Z,79.03
2018-11-01T19:07:35.273Z,78.66
2018-11-01T19:10:07.801Z,78.45
2018-11-01T19:12:43.530Z,78.19
2018-11-01T19:15:16.691Z,77.98
2018-11-01T19:17:49.804Z,77.89
2018-11-01T19:20:22.264Z,77.63
2018-11-01T19:22:54.337Z,77.28
2018-11-01T19:25:27.240Z,76.88
2018-11-01T19:28:01.804Z,76.07
2018-11-01T19:30:40.159Z,75.69
2018-11-01T19:33:19.182Z,75.24
2018-11-01T19:35:54.229Z,75.14
2018-11-01T19:38:25.821Z,74.67
2018-11-01T19:41:00.208Z,74.14
2018-11-01T19:43:34.338Z,74.09
2018-11-01T19:46:07.244Z,73.82
2018-11-01T19:48:40.966Z,73.33
2018-11-01T19:51:16.879Z,73.54
2018-11-01T19:53:49.642Z,73.32
2018-11-01T19:56:21.706Z,73.33
2018-11-01T19:58:58.550Z,73.29
2018-11-01T20:01:35.362Z,73.18
2018-11-01T20:04:15.467Z,73.14
2018-11-01T20:06:50.669Z,72.75
2018-11-01T20:09:29.028Z,72.65
2018-11-01T20:12:03.984Z,72.54
2018-11-01T20:14:43.593Z,72.54
2018-11-01T20:17:20.016Z,72.57
2018-11-01T20:19:55.719Z,72.30
2018-11-01T20:22:31.951Z,72.05
2018-11-01T20:25:04.169Z,72.08
2018-11-01T20:27:36.001Z,72.09
2018-11-01T20:30:10.087Z,71.81
2018-11-01T20:32:43.195Z,71.96
2018-11-01T20:35:17.023Z,71.97
2018-11-01T20:37:50.152Z,71.77
2018-11-01T20:40:22.087Z,71.80
2018-11-01T20:42:53.985Z,72.00
2018-11-01T20:45:27.135Z,71.96
2018-11-01T20:47:59.569Z,72.22
2018-11-01T20:50:33.780Z,72.46
2018-11-01T20:53:13.007Z,72.70
2018-11-01T20:55:44.592Z,72.91
2018-11-01T20:58:19.282Z,72.84
2018-11-01T21:00:52.707Z,72.75
2018-11-01T21:03:24.867Z,72.78
2018-11-01T21:05:56.355Z,72.57
2018-11-01T21:08:28.623Z,72.70
2018-11-01T21:11:01.448Z,73.01
2018-11-01T21:13:38.046Z,73.06
2018-11-01T21:16:11.830Z,73.47
2018-11-01T21:18:46.344Z,73.81
2018-11-01T21:21:22.765Z,73.75
2018-11-01T21:23:55.320Z,73.82
2018-11-01T21:26:27.602Z,73.77
2018-11-01T21:29:00.690Z,73.60
2018-11-01T21:31:34.339Z,73.81
2018-11-01T21:34:06.043Z,73.85
2018-11-01T21:36:38.384Z,74.22
2018-11-01T21:39:13.487Z,74.29
2018-11-01T21:41:47.118Z,74.08
2018-11-01T21:44:23.249Z,74.62
2018-11-01T21:46:55.536Z,74.86
2018-11-01T21:49:26.945Z,74.84
2018-11-01T21:51:58.966Z,75.14
2018-11-01T21:54:30.513Z,75.57
2018-11-01T21:57:03.737Z,76.12
2018-11-01T21:59:35.089Z,75.80
2018-11-01T22:02:06.892Z,75.70
2018-11-01T22:04:38.016Z,75.21
2018-11-01T22:07:08.995Z,74.59
2018-11-01T22:09:42.453Z,74.06
2018-11-01T22:12:15.416Z,73.56
2018-11-01T22:14:47.313Z,72.86
2018-11-01T22:17:20.097Z,72.31
2018-11-01T22:19:51.421Z,71.75
2018-11-01T22:22:25.628Z,71.52
2018-11-01T22:24:56.737Z,71.42
2018-11-01T22:27:33.285Z,70.56
2018-11-01T22:30:09.846Z,70.88
2018-11-01T22:32:46.367Z,70.59
2018-11-01T22:35:19.272Z,70.88
2018-11-01T22:37:54.063Z,70.56
2018-11-01T22:40:26.909Z,70.58
2018-11-01T22:43:02.094Z,70.66
2018-11-01T22:45:37.129Z,70.25
2018-11-01T22:48:10.990Z,70.04
2018-11-01T22:50:46.222Z,70.29
2018-11-01T22:53:19.617Z,70.27
2018-11-01T22:55:53.173Z,70.33
2018-11-01T22:58:28.604Z,70.23
2018-11-01T23:01:03.729Z,70.68
2018-11-01T23:03:36.702Z,70.15
2018-11-01T23:06:09.933Z,69.87
2018-11-01T23:08:42.662Z,69.84
2018-11-01T23:11:15.309Z,69.70
2018-11-01T23:13:56.420Z,70.20
2018-11-01T23:16:27.847Z,70.98
2018-11-01T23:19:01.717Z,71.06
2018-11-01T23:21:34.777Z,71.82
2018-11-01T23:24:06.401Z,71.85
2018-11-01T23:26:38.765Z,71.72
2018-11-01T23:29:10.509Z,71.82
2018-11-01T23:31:42.267Z,72.10
2018-11-01T23:34:14.765Z,72.27
2018-11-01T23:36:51.414Z,72.52
2018-11-01T23:39:28.949Z,72.65
2018-11-01T23:42:05.840Z,72.73
2018-11-01T23:44:41.863Z,72.97
2018-11-01T23:47:18.400Z,73.55
2018-11-01T23:49:57.799Z,73.72
2018-11-01T23:52:29.810Z,74.07
2018-11-01T23:55:01.558Z,74.54
2018-11-01T23:57:33.835Z,74.82
